createdAt,value
2023-04-18T00:00:22.589Z,0.01
2023-04-18T02:10:03.688Z,0.03
2023-04-18T02:15:08.018Z,0.01
2023-04-18T03:13:34.503Z,0.02
2023-04-18T03:16:22.442Z,0.01
2023-04-18T03:21:16.052Z,0.02
2023-04-18T03:28:56.149Z,0.03
2023-04-18T03:33:33.568Z,0.04
2023-04-18T03:35:31.571Z,0.05
2023-04-18T03:38:17.561Z,0.07
2023-04-18T03:40:49.748Z,0.09
2023-04-18T03:43:07.972Z,0.14
2023-04-18T03:45:12.120Z,0.18
2023-04-18T03:48:04.616Z,0.3
2023-04-18T03:50:42.813Z,0.41
2023-04-18T03:53:07.091Z,0.59
2023-04-18T03:55:17.481Z,0.84
2023-04-18T03:57:13.862Z,1.14
2023-04-18T03:59:58.271Z,1.69
2023-04-18T04:02:28.743Z,2.58
2023-04-18T04:04:45.276Z,3.86
2023-04-18T04:06:47.708Z,5.32
2023-04-18T04:09:38.186Z,8.61
2023-04-18T04:12:14.804Z,13.49
2023-04-18T04:14:37.358Z,20.46
2023-04-18T04:16:45.981Z,28.25
2023-04-18T04:19:42.624Z,41.32
2023-04-18T04:22:25.260Z,58.46
2023-04-18T04:24:53.450Z,75.62
2023-04-18T04:27:08.007Z,90.2
2023-04-18T04:29:08.729Z,105.32
2023-04-18T04:31:57.456Z,134.32
2023-04-18T04:34:32.164Z,183.1
2023-04-18T04:36:53.011Z,208.8
2023-04-18T04:38:59.827Z,230.3
2023-04-18T04:41:54.581Z,263.9
2023-04-18T04:44:35.630Z,283.5
2023-04-18T04:47:02.561Z,313.4
2023-04-18T04:49:15.388Z,350.5
2023-04-18T04:51:14.483Z,333.4
2023-04-18T04:54:01.590Z,384.8
2023-04-18T04:56:34.504Z,450
2023-04-18T04:58:53.724Z,487.8
2023-04-18T05:00:58.594Z,474
2023-04-18T05:03:51.737Z,471.3
2023-04-18T05:06:30.610Z,468.9
2023-04-18T05:08:55.760Z,477.9
2023-04-18T05:11:06.880Z,483.2
2023-04-18T05:15:48.577Z,582.8
2023-04-18T05:18:19.712Z,556
2023-04-18T05:20:36.972Z,577.7
2023-04-18T05:22:40.382Z,586
2023-04-18T05:25:31.741Z,692.4
2023-04-18T05:28:09.032Z,729.2
2023-04-18T05:30:32.316Z,774.7
2023-04-18T05:32:41.907Z,611.2
2023-04-18T05:35:39.180Z,559.6
2023-04-18T05:38:22.524Z,510
2023-04-18T05:40:52.039Z,629.1
2023-04-18T05:43:07.491Z,828.4
2023-04-18T05:45:08.892Z,841.2
2023-04-18T05:47:58.487Z,1065.6
2023-04-18T05:50:34.026Z,1259.2
2023-04-18T05:52:55.470Z,1653
2023-04-18T05:55:03.218Z,1568.6
2023-04-18T05:57:58.767Z,1613.4
2023-04-18T06:00:40.346Z,1644
2023-04-18T06:03:10.165Z,1536.6
2023-04-18T06:05:21.780Z,1320.3
2023-04-18T06:07:20.888Z,1342
2023-04-18T06:10:08.495Z,1404.1
2023-04-18T06:12:42.316Z,1435.5
2023-04-18T06:15:01.980Z,1362.5
2023-04-18T06:17:07.700Z,1291.2
2023-04-18T06:20:01.597Z,1294.7
2023-04-18T06:22:41.385Z,1276.1
2023-04-18T06:25:07.164Z,1247
2023-04-18T06:27:30.431Z,1224.3
2023-04-18T06:29:17.114Z,1186.5
2023-04-18T06:32:02.784Z,1090.2
2023-04-18T06:34:34.541Z,1230
2023-04-18T06:36:52.567Z,1225.2
2023-04-18T06:38:56.546Z,1108.4
2023-04-18T06:41:48.535Z,1222.7
2023-04-18T06:44:26.626Z,1125.4
2023-04-18T06:46:50.795Z,1064.6
2023-04-18T06:49:00.885Z,1188.8
2023-04-18T06:50:57.280Z,1217.6
2023-04-18T06:53:41.329Z,1200.3
2023-04-18T06:56:11.521Z,1332.4
2023-04-18T06:58:27.189Z,1333.1
2023-04-18T07:00:29.555Z,1438
2023-04-18T07:03:19.753Z,1430.4
2023-04-18T07:05:55.831Z,1420.1
2023-04-18T07:08:18.230Z,1443.8
2023-04-18T07:10:26.514Z,1498.2
2023-04-18T07:13:22.827Z,1656
2023-04-18T07:16:05.345Z,1802
2023-04-18T07:18:37.790Z,1994
2023-04-18T07:20:48.257Z,2494
2023-04-18T07:22:49.953Z,2795
2023-04-18T07:25:37.345Z,2195
2023-04-18T07:28:11.907Z,2302
2023-04-18T07:30:32.373Z,1565.4
2023-04-18T07:32:39.082Z,1719
2023-04-18T07:35:33.449Z,2259
2023-04-18T07:38:13.864Z,2296
2023-04-18T07:40:40.558Z,1747
2023-04-18T07:42:53.189Z,1924
2023-04-18T07:44:51.847Z,2186
2023-04-18T07:47:38.660Z,2287
2023-04-18T07:50:11.068Z,2283
2023-04-18T07:52:29.905Z,2230
2023-04-18T07:54:34.923Z,2208
2023-04-18T07:57:27.988Z,2332
2023-04-18T08:00:06.954Z,3552
2023-04-18T08:02:31.926Z,3802
2023-04-18T08:04:43.098Z,4467
2023-04-18T08:06:40.064Z,4175
2023-04-18T08:09:25.104Z,3880
2023-04-18T08:11:56.365Z,3407
2023-04-18T08:14:13.630Z,3741
2023-04-18T08:16:17.566Z,3783
2023-04-18T08:19:08.039Z,3008
2023-04-18T08:21:45.372Z,2713
2023-04-18T08:24:08.700Z,2385
2023-04-18T08:26:18.231Z,2250
2023-04-18T08:29:15.870Z,2709
2023-04-18T08:31:59.289Z,3078
2023-04-18T08:34:28.678Z,3435
2023-04-18T08:36:44.256Z,3105
2023-04-18T08:38:45.704Z,3078
2023-04-18T08:41:34.645Z,3246
2023-04-18T08:44:10.341Z,3594
2023-04-18T08:46:31.893Z,3645
2023-04-18T08:48:39.432Z,3897
2023-04-18T08:51:35.102Z,4340
2023-04-18T08:54:16.736Z,4113
2023-04-18T08:56:44.437Z,3412
2023-04-18T08:58:57.970Z,3651
2023-04-18T09:00:57.780Z,3832
2023-04-18T09:03:45.456Z,4990
2023-04-18T09:06:19.315Z,5231
2023-04-18T09:08:38.997Z,4565
2023-04-18T09:10:46.606Z,4541
2023-04-18T09:13:38.551Z,4444
2023-04-18T09:16:18.488Z,5358
2023-04-18T09:18:44.349Z,5726
2023-04-18T09:20:56.175Z,5258
2023-04-18T09:22:54.188Z,5002
2023-04-18T09:25:42.678Z,5319
2023-04-18T09:27:53.320Z,5685
2023-04-18T09:29:52.294Z,4654
2023-04-18T09:32:38.983Z,4199
2023-04-18T09:35:11.985Z,3504
2023-04-18T09:37:30.998Z,3269
2023-04-18T09:39:35.892Z,3362
2023-04-18T09:42:29.179Z,3458
2023-04-18T09:45:08.136Z,3532
2023-04-18T09:47:33.209Z,3105
2023-04-18T09:49:44.429Z,3240
2023-04-18T09:51:41.629Z,3042
2023-04-18T09:54:26.737Z,3217
2023-04-18T09:56:58.116Z,4284
2023-04-18T09:59:15.210Z,3536
2023-04-18T10:01:18.262Z,2841
2023-04-18T10:04:09.495Z,3133
2023-04-18T10:06:46.865Z,2851
2023-04-18T10:09:10.194Z,3741
2023-04-18T10:11:20.254Z,4641
2023-04-18T10:14:17.052Z,5322
2023-04-18T10:17:00.344Z,6896
2023-04-18T10:19:29.648Z,5089
2023-04-18T10:21:44.831Z,4723
2023-04-18T10:23:45.872Z,3860
2023-04-18T10:26:35.192Z,5281
2023-04-18T10:29:10.431Z,5347
2023-04-18T10:31:31.822Z,4572
2023-04-18T10:33:40.909Z,4487
2023-04-18T10:36:34.693Z,4785
2023-04-18T10:39:16.110Z,4768
2023-04-18T10:41:43.572Z,4147
2023-04-18T10:43:56.885Z,3175
2023-04-18T10:45:56.469Z,3326
2023-04-18T10:48:43.950Z,3587
2023-04-18T10:51:17.423Z,3641
2023-04-18T10:53:36.818Z,4299
2023-04-18T10:55:42.653Z,4567
2023-04-18T10:58:35.958Z,3744
2023-04-18T11:01:15.402Z,2968
2023-04-18T11:03:41.061Z,2871
2023-04-18T11:05:52.626Z,4078
2023-04-18T11:07:50.273Z,4446
2023-04-18T11:10:35.955Z,2938
2023-04-18T11:13:07.670Z,4613
2023-04-18T11:15:25.008Z,5253
2023-04-18T11:17:28.937Z,3779
2023-04-18T11:20:20.598Z,3691
2023-04-18T11:22:58.288Z,5473
2023-04-18T11:25:21.981Z,3392
2023-04-18T11:27:31.959Z,3991
2023-04-18T11:29:28.041Z,3927
2023-04-18T11:32:11.588Z,4038
2023-04-18T11:34:41.491Z,3790
2023-04-18T11:36:57.388Z,3438
2023-04-18T11:38:59.348Z,4079
2023-04-18T11:41:49.359Z,4206
2023-04-18T11:44:25.411Z,3054
2023-04-18T11:46:47.457Z,3448
2023-04-18T11:48:55.724Z,3192
2023-04-18T11:51:51.793Z,2922
2023-04-18T11:54:33.899Z,2080
2023-04-18T11:57:02.015Z,2984
2023-04-18T11:59:16.250Z,3372
2023-04-18T12:01:16.572Z,2827
2023-04-18T12:04:04.827Z,3580
2023-04-18T12:06:38.740Z,4035
2023-04-18T12:08:59.108Z,3673
2023-04-18T12:11:05.339Z,3169
2023-04-18T12:13:59.632Z,3299
2023-04-18T12:16:39.907Z,4476
2023-04-18T12:19:06.289Z,4366
2023-04-18T12:21:18.647Z,4355
2023-04-18T12:23:17.264Z,4259
2023-04-18T12:26:03.773Z,3626
2023-04-18T12:28:36.266Z,2700
2023-04-18T12:30:54.948Z,2735
2023-04-18T12:32:59.674Z,2395
2023-04-18T12:35:52.237Z,2279
2023-04-18T12:38:31.058Z,1574.4
2023-04-18T12:40:55.848Z,1363.8
2023-04-18T12:43:06.524Z,1358
2023-04-18T12:45:03.474Z,1477.1
2023-04-18T12:47:48.328Z,1544.9
2023-04-18T12:50:19.053Z,1621.7
2023-04-18T12:52:35.839Z,1566
2023-04-18T12:54:38.801Z,1596.1
2023-04-18T12:57:30.574Z,1636.4
2023-04-18T13:00:05.962Z,1813
2023-04-18T13:02:29.035Z,2105
2023-04-18T13:04:37.930Z,2112
2023-04-18T13:07:34.686Z,1853
2023-04-18T13:10:17.674Z,1491.8
2023-04-18T13:12:46.808Z,1225.9
2023-04-18T13:15:01.700Z,942.7
2023-04-18T13:17:02.919Z,842.2
2023-04-18T13:19:51.916Z,1011.5
2023-04-18T13:22:27.093Z,1752
2023-04-18T13:24:47.936Z,2367
2023-04-18T13:26:55.148Z,2497
2023-04-18T13:29:50.116Z,3170
2023-04-18T13:32:31.205Z,2361
2023-04-18T13:34:58.536Z,2441
2023-04-18T13:37:11.765Z,2509
2023-04-18T13:39:11.038Z,2689
2023-04-18T13:41:58.417Z,2750
2023-04-18T13:44:31.718Z,3037
2023-04-18T13:46:51.113Z,3321
2023-04-18T13:48:56.276Z,3019
2023-04-18T13:51:49.823Z,3192
2023-04-18T13:54:29.215Z,3424
2023-04-18T13:56:54.699Z,3480
2023-04-18T13:59:06.463Z,3534
2023-04-18T14:01:04.170Z,3223
2023-04-18T14:03:49.801Z,3869
2023-04-18T14:06:21.553Z,3827
2023-04-18T14:08:39.342Z,3989
2023-04-18T14:10:43.105Z,4058
2023-04-18T14:13:35.047Z,3902
2023-04-18T14:16:13.107Z,3262
2023-04-18T14:18:36.937Z,3176
2023-04-18T14:20:46.998Z,3008
2023-04-18T14:22:43.106Z,2814
2023-04-18T14:25:27.236Z,3274
2023-04-18T14:27:57.407Z,3303
2023-04-18T14:30:13.615Z,3447
2023-04-18T14:32:15.757Z,3004
2023-04-18T14:35:05.765Z,2439
2023-04-18T14:37:42.006Z,2328
2023-04-18T14:40:03.799Z,2456
2023-04-18T14:42:12.015Z,2693
2023-04-18T14:45:08.353Z,2300
2023-04-18T14:47:50.683Z,2577
2023-04-18T14:50:18.948Z,3063
2023-04-18T14:52:33.217Z,2972
2023-04-18T14:54:33.632Z,3262
2023-04-18T14:57:22.005Z,3111
2023-04-18T14:59:56.329Z,3185
2023-04-18T15:02:17.022Z,3412
2023-04-18T15:04:23.614Z,3555
2023-04-18T15:07:17.985Z,3956
2023-04-18T15:09:58.844Z,3005
2023-04-18T15:12:25.153Z,3107
2023-04-18T15:14:37.794Z,3251
2023-04-18T15:16:36.604Z,3404
2023-04-18T15:19:23.386Z,2215
2023-04-18T15:21:56.162Z,2224
2023-04-18T15:24:15.093Z,1960
2023-04-18T15:26:19.815Z,1932
2023-04-18T15:29:12.724Z,1938
2023-04-18T15:31:51.157Z,1831
2023-04-18T15:34:16.145Z,1825
2023-04-18T15:36:26.984Z,1856
2023-04-18T15:38:23.865Z,2056
2023-04-18T15:41:09.036Z,2754
2023-04-18T15:43:40.030Z,3082
2023-04-18T15:45:57.005Z,2938
2023-04-18T15:48:00.243Z,2803
2023-04-18T15:50:51.360Z,1875
2023-04-18T15:53:28.579Z,1406
2023-04-18T15:55:51.617Z,1417.6
2023-04-18T15:58:00.835Z,2048
2023-04-18T16:00:58.000Z,1982
2023-04-18T16:03:41.035Z,1617.2
2023-04-18T16:06:10.279Z,1332.4
2023-04-18T16:08:25.477Z,1244.8
2023-04-18T16:10:26.741Z,1577.6
2023-04-18T16:13:16.009Z,1816
2023-04-18T16:15:51.438Z,1765
2023-04-18T16:18:12.932Z,1620.4
2023-04-18T16:20:20.125Z,1639
2023-04-18T16:23:15.181Z,1760
2023-04-18T16:25:56.444Z,1671
2023-04-18T16:28:23.787Z,1586.5
2023-04-18T16:30:37.212Z,1463
2023-04-18T16:32:36.596Z,1331.2
2023-04-18T16:35:23.827Z,1237.1
2023-04-18T16:37:57.342Z,1182
2023-04-18T16:40:16.809Z,1013.4
2023-04-18T16:42:22.189Z,1014
2023-04-18T16:45:15.633Z,944.6
2023-04-18T16:47:55.122Z,1023.3
2023-04-18T16:50:20.576Z,1003.8
2023-04-18T16:52:32.191Z,971.5
2023-04-18T16:54:29.725Z,1026.2
2023-04-18T16:57:15.166Z,944.9
2023-04-18T16:59:46.606Z,802.2
2023-04-18T17:02:04.259Z,678.7
2023-04-18T17:04:07.966Z,650.8
2023-04-18T17:06:59.445Z,570.4
2023-04-18T17:09:37.207Z,584.3
2023-04-18T17:12:00.942Z,492.8
2023-04-18T17:14:10.307Z,445.9
2023-04-18T17:16:06.237Z,439.5
2023-04-18T17:18:50.045Z,426.8
2023-04-18T17:21:19.830Z,403.3
2023-04-18T17:23:35.623Z,357.9
2023-04-18T17:25:37.627Z,353.4
2023-04-18T17:28:27.437Z,287.4
2023-04-18T17:31:03.320Z,252.4
2023-04-18T17:33:25.371Z,226.8
2023-04-18T17:35:33.453Z,202.3
2023-04-18T17:38:29.360Z,154.76
2023-04-18T17:41:11.448Z,136.4
2023-04-18T17:43:39.434Z,136.2
2023-04-18T17:45:53.529Z,134.28
2023-04-18T17:47:53.797Z,133.92
2023-04-18T17:50:42.138Z,142.04
2023-04-18T17:53:16.042Z,121.76
2023-04-18T17:55:36.181Z,103.04
2023-04-18T17:57:42.581Z,92.68
2023-04-18T18:00:36.895Z,76.46
2023-04-18T18:03:17.240Z,66.62
2023-04-18T18:05:43.163Z,54.36
2023-04-18T18:07:55.570Z,49.96
2023-04-18T18:09:53.985Z,41.78
2023-04-18T18:12:40.409Z,36.95
2023-04-18T18:15:12.905Z,34.51
2023-04-18T18:17:31.353Z,30.98
2023-04-18T18:19:35.977Z,26.79
2023-04-18T18:22:28.518Z,18.66
2023-04-18T18:25:07.124Z,15.12
2023-04-18T18:27:31.646Z,10.86
2023-04-18T18:29:42.404Z,9.77
2023-04-18T18:31:39.244Z,7.33
2023-04-18T18:34:23.749Z,4.86
2023-04-18T18:36:54.562Z,3.2
2023-04-18T18:39:11.385Z,2.19
2023-04-18T18:41:14.203Z,1.61
2023-04-18T18:44:05.156Z,1.14
2023-04-18T18:46:43.207Z,0.77
2023-04-18T18:49:04.924Z,0.55
2023-04-18T18:51:14.023Z,0.39
2023-04-18T18:54:11.008Z,0.28
2023-04-18T18:56:53.575Z,0.22
2023-04-18T18:59:22.490Z,0.16
2023-04-18T19:01:37.690Z,0.13
2023-04-18T19:03:38.885Z,0.11
2023-04-18T19:09:03.097Z,0.09
2023-04-18T19:11:24.303Z,0.08
2023-04-18T19:13:31.534Z,0.07
2023-04-18T19:23:48.650Z,0.06
2023-04-18T19:31:08.680Z,0.05
2023-04-18T19:33:28.027Z,0.06
2023-04-18T19:43:32.199Z,0.05
2023-04-18T19:52:39.600Z,0.06
2023-04-18T19:54:38.488Z,0.07
2023-04-18T20:02:16.864Z,0.05
2023-04-18T20:07:14.532Z,0.06
2023-04-18T20:28:54.178Z,0.05
2023-04-18T20:48:30.637Z,0.04
2023-04-18T20:51:19.792Z,0.05
2023-04-18T20:53:54.973Z,0.04
2023-04-18T20:56:16.436Z,0.03
2023-04-18T20:58:23.903Z,0.04
2023-04-18T21:13:29.823Z,0.05
2023-04-18T21:16:03.548Z,0.04
2023-04-18T21:23:22.703Z,0.03
2023-04-18T21:26:02.446Z,0.08
2023-04-18T21:30:39.838Z,0.02
2023-04-18T21:32:37.592Z,0.01
2023-04-18T21:35:24.862Z,0.02
2023-04-18T21:57:01.955Z,0.03
2023-04-18T22:21:56.513Z,0.04
2023-04-18T22:29:00.412Z,0.03
2023-04-18T22:31:35.139Z,0.04
2023-04-18T22:33:55.933Z,0.03
2023-04-18T22:36:02.606Z,0.04
2023-04-18T22:38:57.459Z,0.03
2023-04-18T22:55:55.127Z,0.04
2023-04-18T22:58:00.140Z,0.03
2023-04-18T23:03:32.298Z,0.04
2023-04-18T23:05:57.534Z,0.03
2023-04-18T23:08:08.346Z,0.04
2023-04-18T23:10:05.572Z,0.03
2023-04-18T23:15:21.385Z,0.04
2023-04-18T23:17:38.434Z,0.03
2023-04-18T23:25:10.075Z,0.04
2023-04-18T23:27:33.455Z,0.03
2023-04-18T23:29:42.739Z,0.04
2023-04-18T23:37:52.828Z,0.03
